createdAt,value
2023-01-17T08:16:18.662Z,10.27
2023-01-17T08:17:21.676Z,11.98
2023-01-17T08:18:23.255Z,11.02
2023-01-17T08:19:25.883Z,11.73
2023-01-17T08:20:28.102Z,11.20
2023-01-17T08:21:30.898Z,11.23
2023-01-17T08:22:32.456Z,11.25
2023-01-17T08:23:38.910Z,10.80
2023-01-17T08:24:41.810Z,10.05
2023-01-17T08:25:44.338Z,11.45
2023-01-17T08:26:45.864Z,9.95
2023-01-17T08:27:48.371Z,10.20
2023-01-17T08:28:55.682Z,8.88
2023-01-17T08:29:58.293Z,9.95
2023-01-17T08:31:11.202Z,11.20
2023-01-17T08:32:25.226Z,10.45
2023-01-17T08:33:36.963Z,10.00
2023-01-17T08:34:49.548Z,11.18
2023-01-17T08:35:53.421Z,9.27
2023-01-17T08:36:56.210Z,9.40
2023-01-17T08:38:09.800Z,9.35
2023-01-17T08:39:23.002Z,9.30
2023-01-17T08:40:35.527Z,9.35
2023-01-17T08:41:47.167Z,10.27
2023-01-17T08:42:56.721Z,10.73
2023-01-17T08:44:09.297Z,9.65
2023-01-17T08:45:17.962Z,10.10
2023-01-17T08:46:32.173Z,9.75
2023-01-17T08:47:46.781Z,9.48
2023-01-17T08:49:01.194Z,10.50
2023-01-17T08:50:03.468Z,9.48
2023-01-17T08:51:07.434Z,10.10
2023-01-17T08:52:13.005Z,9.55
2023-01-17T08:53:25.722Z,8.85
2023-01-17T08:54:37.289Z,8.98
2023-01-17T08:55:51.158Z,9.10
2023-01-17T08:57:04.998Z,8.70
2023-01-17T08:58:07.589Z,8.57
2023-01-17T08:59:11.576Z,8.75
2023-01-17T09:00:24.216Z,8.98
2023-01-17T09:01:41.632Z,8.93
2023-01-17T09:02:55.700Z,7.80
2023-01-17T09:04:08.709Z,7.90
2023-01-17T09:05:13.460Z,7.38
2023-01-17T09:06:25.996Z,9.02
2023-01-17T09:07:38.779Z,8.52
2023-01-17T09:08:54.697Z,7.78
2023-01-17T09:10:07.001Z,7.63
2023-01-17T09:11:11.144Z,8.13
2023-01-17T09:12:13.872Z,7.50
2023-01-17T09:13:16.865Z,7.93
2023-01-17T09:14:19.437Z,8.20
2023-01-17T09:15:22.016Z,7.93
2023-01-17T09:16:23.549Z,7.13
2023-01-17T09:17:26.079Z,6.80
2023-01-17T09:18:37.041Z,7.75
2023-01-17T09:19:49.615Z,7.13
2023-01-17T09:21:10.871Z,7.60
2023-01-17T09:22:13.489Z,7.95
2023-01-17T09:23:15.098Z,6.90
2023-01-17T09:24:17.661Z,7.13
2023-01-17T09:25:20.152Z,7.20
2023-01-17T09:26:25.640Z,6.63
2023-01-17T09:27:27.289Z,7.57
2023-01-17T09:28:29.980Z,7.00
2023-01-17T09:29:32.518Z,7.07
2023-01-17T09:30:35.065Z,7.15
2023-01-17T09:31:36.619Z,7.32
2023-01-17T09:32:39.487Z,7.18
2023-01-17T09:33:48.234Z,6.90
2023-01-17T09:34:49.996Z,8.10
2023-01-17T09:36:05.286Z,6.68
2023-01-17T09:37:09.543Z,8.65
2023-01-17T09:38:11.412Z,7.75
2023-01-17T09:39:15.178Z,6.85
2023-01-17T09:40:23.682Z,6.85
2023-01-17T09:41:29.352Z,6.50
2023-01-17T09:42:35.696Z,7.20
2023-01-17T09:43:43.861Z,6.63
2023-01-17T09:44:54.042Z,8.18
2023-01-17T09:45:56.609Z,6.22
2023-01-17T09:47:03.548Z,6.82
2023-01-17T09:48:11.026Z,7.18
2023-01-17T09:49:34.224Z,6.85
2023-01-17T09:50:45.136Z,7.60
2023-01-17T09:51:47.626Z,7.40
2023-01-17T09:52:49.493Z,7.05
2023-01-17T09:53:54.010Z,6.55
2023-01-17T09:54:56.656Z,6.70
2023-01-17T09:56:03.115Z,7.68
2023-01-17T09:57:15.805Z,6.88
2023-01-17T09:58:24.687Z,7.00
2023-01-17T09:59:35.805Z,5.80
2023-01-17T10:00:49.376Z,6.60
2023-01-17T10:02:01.273Z,7.43
2023-01-17T10:03:24.722Z,7.60
2023-01-17T10:04:48.873Z,7.85
2023-01-17T10:06:02.264Z,7.75
2023-01-17T10:07:29.369Z,7.50
2023-01-17T10:08:48.513Z,7.15
2023-01-17T10:10:11.886Z,6.28
2023-01-17T10:11:41.724Z,7.45
2023-01-17T10:12:54.424Z,6.13
2023-01-17T10:14:10.799Z,8.07
2023-01-17T10:15:32.687Z,6.38
2023-01-17T10:16:44.703Z,7.03
2023-01-17T10:17:55.425Z,6.45
2023-01-17T10:19:14.438Z,6.60
2023-01-17T10:20:35.659Z,6.32
2023-01-17T10:22:01.996Z,6.18
2023-01-17T10:23:22.731Z,6.40
2023-01-17T10:25:12.908Z,6.32
2023-01-17T10:26:18.766Z,5.85
2023-01-17T10:27:25.677Z,6.18
2023-01-17T10:28:35.208Z,6.65
2023-01-17T10:29:37.068Z,5.70
2023-01-17T10:30:45.025Z,5.93
2023-01-17T10:31:52.625Z,5.82
2023-01-17T10:32:56.979Z,6.50
2023-01-17T10:34:06.913Z,5.80
2023-01-17T10:35:21.063Z,5.78
2023-01-17T10:36:28.758Z,6.30
2023-01-17T10:37:40.317Z,6.53
2023-01-17T10:38:47.091Z,6.40
2023-01-17T10:39:51.046Z,7.43
2023-01-17T10:40:57.231Z,7.20
2023-01-17T10:42:07.465Z,5.22
2023-01-17T10:43:18.910Z,5.70
2023-01-17T10:44:26.695Z,6.00
2023-01-17T10:45:40.751Z,7.07
2023-01-17T10:46:48.136Z,5.85
2023-01-17T10:47:58.958Z,6.40
2023-01-17T10:49:17.468Z,5.60
2023-01-17T10:50:34.318Z,6.00
2023-01-17T10:51:59.974Z,6.15
2023-01-17T10:53:10.693Z,7.05
2023-01-17T10:54:24.443Z,5.70
2023-01-17T10:55:38.860Z,7.40
2023-01-17T10:56:42.158Z,6.40
2023-01-17T10:57:46.531Z,6.57
2023-01-17T10:58:50.488Z,7.30
2023-01-17T10:59:54.804Z,6.13
2023-01-17T11:01:01.127Z,5.85
2023-01-17T11:02:06.854Z,5.63
2023-01-17T11:03:11.499Z,6.40
2023-01-17T11:04:20.659Z,5.95
2023-01-17T11:05:28.341Z,6.00
2023-01-17T11:06:33.901Z,8.02
2023-01-17T11:07:39.947Z,5.65
2023-01-17T11:08:52.076Z,5.70
2023-01-17T11:09:55.995Z,5.70
2023-01-17T11:11:04.987Z,5.65
2023-01-17T11:12:17.779Z,5.78
2023-01-17T11:13:33.067Z,5.65
2023-01-17T11:14:35.905Z,7.05
2023-01-17T11:15:41.802Z,4.90
2023-01-17T11:16:44.752Z,5.10
2023-01-17T11:17:52.987Z,6.00
2023-01-17T11:19:15.664Z,6.22
2023-01-17T11:20:33.295Z,6.53
2023-01-17T11:21:38.740Z,6.15
2023-01-17T11:22:46.885Z,6.00
2023-01-17T11:23:51.305Z,5.55
2023-01-17T11:24:59.994Z,6.70
2023-01-17T11:26:13.895Z,5.35
2023-01-17T11:27:25.584Z,7.10
2023-01-17T11:28:30.612Z,5.53
2023-01-17T11:29:36.821Z,5.45
2023-01-17T11:30:52.523Z,5.45
2023-01-17T11:31:57.079Z,5.15
2023-01-17T11:33:01.396Z,5.55
2023-01-17T11:34:14.841Z,5.80
2023-01-17T11:35:20.197Z,5.20
2023-01-17T11:36:27.971Z,5.53
2023-01-17T11:37:29.633Z,5.43
2023-01-17T11:38:33.618Z,5.00
2023-01-17T11:39:35.382Z,5.75
2023-01-17T11:40:40.468Z,4.70
2023-01-17T11:41:42.194Z,5.10
2023-01-17T11:42:44.716Z,5.03
2023-01-17T11:43:53.018Z,5.20
2023-01-17T11:44:55.532Z,5.35
2023-01-17T11:46:14.456Z,5.88
2023-01-17T11:47:19.905Z,6.20
2023-01-17T11:48:24.714Z,5.68
2023-01-17T11:49:26.917Z,5.90
2023-01-17T11:50:32.532Z,5.97
2023-01-17T11:51:41.848Z,5.10
2023-01-17T11:52:43.984Z,5.20
2023-01-17T11:53:49.007Z,5.50
2023-01-17T11:54:53.829Z,4.90
2023-01-17T11:56:05.071Z,5.57
2023-01-17T11:57:21.045Z,5.72
2023-01-17T11:58:24.091Z,5.40
2023-01-17T11:59:33.400Z,5.18
2023-01-17T12:00:45.824Z,5.22
2023-01-17T12:01:58.595Z,5.10
2023-01-17T12:03:26.651Z,4.90
2023-01-17T12:04:36.392Z,4.70
2023-01-17T12:05:51.173Z,5.22
2023-01-17T12:07:08.440Z,5.47
2023-01-17T12:08:19.670Z,5.00
2023-01-17T12:09:35.049Z,5.30
2023-01-17T12:10:45.121Z,5.60
2023-01-17T12:12:14.287Z,5.50
2023-01-17T12:13:53.379Z,5.80
2023-01-17T12:15:09.595Z,5.43
2023-01-17T12:16:29.544Z,4.90
2023-01-17T12:17:48.980Z,4.68
2023-01-17T12:19:06.591Z,7.50
2023-01-17T12:20:21.263Z,4.65
2023-01-17T12:21:36.176Z,4.35
2023-01-17T12:23:02.532Z,4.50
2023-01-17T12:24:28.945Z,4.72
2023-01-17T12:25:54.459Z,5.45
2023-01-17T12:27:07.871Z,5.18
2023-01-17T12:28:25.791Z,4.65
2023-01-17T12:29:51.228Z,4.57
2023-01-17T12:31:06.880Z,5.05
2023-01-17T12:32:36.824Z,4.70
2023-01-17T12:33:48.002Z,4.95
2023-01-17T12:34:55.481Z,5.25
2023-01-17T12:36:02.421Z,4.78
2023-01-17T12:37:21.873Z,4.80
2023-01-17T12:38:33.651Z,5.00
2023-01-17T12:39:39.335Z,4.95
2023-01-17T12:40:50.040Z,4.60
2023-01-17T12:42:00.308Z,5.18
2023-01-17T12:43:08.830Z,4.70
2023-01-17T12:44:16.084Z,4.47
2023-01-17T12:45:24.632Z,5.25
2023-01-17T12:46:31.924Z,4.65
2023-01-17T12:47:41.137Z,4.40
2023-01-17T12:48:45.158Z,4.90
2023-01-17T12:49:53.534Z,4.40
2023-01-17T12:51:03.752Z,4.70
2023-01-17T12:52:14.620Z,4.57
2023-01-17T12:53:27.175Z,4.55
2023-01-17T12:54:37.463Z,4.13
2023-01-17T12:55:49.710Z,4.50
2023-01-17T12:56:55.531Z,4.90
2023-01-17T12:58:00.135Z,5.07
2023-01-17T12:59:13.045Z,5.68
2023-01-17T13:00:19.539Z,5.60
2023-01-17T13:01:39.801Z,3.95
2023-01-17T13:02:50.712Z,4.72
2023-01-17T13:04:03.154Z,4.30
2023-01-17T13:05:12.246Z,4.80
2023-01-17T13:06:25.964Z,4.65
2023-01-17T13:07:38.255Z,4.80
2023-01-17T13:08:46.376Z,4.40
2023-01-17T13:09:53.246Z,4.40
2023-01-17T13:11:00.117Z,4.43
2023-01-17T13:12:05.986Z,4.43
2023-01-17T13:13:22.196Z,4.03
2023-01-17T13:14:24.925Z,5.05
2023-01-17T13:15:35.092Z,4.63
2023-01-17T13:16:43.060Z,4.68
2023-01-17T13:17:49.499Z,4.15
2023-01-17T13:18:53.407Z,5.30
2023-01-17T13:20:00.951Z,4.65
2023-01-17T13:21:21.632Z,5.05
2023-01-17T13:22:26.984Z,4.20
2023-01-17T13:23:33.295Z,4.30
2023-01-17T13:24:45.191Z,4.30
2023-01-17T13:25:58.182Z,4.80
2023-01-17T13:27:17.789Z,4.70
2023-01-17T13:28:37.318Z,3.90
2023-01-17T13:29:52.122Z,4.13
2023-01-17T13:31:10.088Z,3.90
2023-01-17T13:32:27.442Z,4.70
2023-01-17T13:33:42.230Z,3.90
2023-01-17T13:35:12.401Z,5.93
2023-01-17T13:36:29.707Z,4.60
2023-01-17T13:37:56.828Z,3.85
2023-01-17T13:39:42.846Z,3.65
2023-01-17T13:40:51.631Z,4.40
2023-01-17T13:42:09.488Z,3.40
2023-01-17T13:43:14.635Z,3.08
2023-01-17T13:44:26.734Z,3.00
2023-01-17T13:45:30.818Z,3.70
2023-01-17T13:47:00.826Z,3.50
2023-01-17T13:48:29.851Z,3.03
2023-01-17T13:49:34.413Z,3.00
2023-01-17T13:50:48.720Z,3.10
2023-01-17T13:52:09.491Z,2.85
2023-01-17T13:53:48.652Z,3.40
2023-01-17T13:54:53.230Z,3.50
2023-01-17T13:56:02.843Z,3.50
2023-01-17T13:57:42.013Z,3.00
2023-01-17T13:59:03.081Z,3.38
2023-01-17T14:00:50.466Z,3.35
2023-01-17T14:01:53.211Z,3.20
2023-01-17T14:03:12.793Z,3.63
2023-01-17T14:04:22.189Z,2.85
2023-01-17T14:05:49.103Z,3.10
2023-01-17T14:06:55.388Z,3.30
2023-01-17T14:08:01.873Z,3.20
2023-01-17T14:09:11.196Z,2.70
2023-01-17T14:10:29.368Z,2.95
2023-01-17T14:11:34.369Z,3.60
2023-01-17T14:12:40.011Z,3.40
2023-01-17T14:13:41.743Z,3.10
2023-01-17T14:14:52.680Z,3.28
2023-01-17T14:15:55.377Z,4.20
2023-01-17T14:17:26.543Z,2.90
2023-01-17T14:18:34.930Z,3.85
2023-01-17T14:19:37.012Z,3.70
2023-01-17T14:20:46.658Z,3.22
2023-01-17T14:21:50.213Z,3.95
2023-01-17T14:22:55.926Z,3.50
2023-01-17T14:24:07.386Z,4.03
2023-01-17T14:25:14.990Z,3.38
2023-01-17T14:26:49.766Z,3.85
2023-01-17T14:28:02.843Z,4.82
2023-01-17T14:29:43.798Z,3.40
2023-01-17T14:30:46.947Z,3.40
2023-01-17T14:31:49.217Z,3.72
2023-01-17T14:33:10.983Z,3.35
2023-01-17T14:34:13.768Z,3.30
2023-01-17T14:35:23.197Z,4.07
2023-01-17T14:36:30.724Z,4.05
2023-01-17T14:37:46.847Z,3.13
2023-01-17T14:38:48.438Z,3.50
2023-01-17T14:39:52.419Z,3.53
2023-01-17T14:40:56.931Z,4.35
2023-01-17T14:41:58.511Z,3.83
2023-01-17T14:43:06.694Z,4.03
2023-01-17T14:44:12.131Z,4.53
2023-01-17T14:45:22.508Z,3.25
2023-01-17T14:46:33.114Z,3.20
2023-01-17T14:47:37.947Z,3.33
2023-01-17T14:48:41.792Z,3.03
2023-01-17T14:49:44.069Z,2.00
2023-01-17T14:50:54.962Z,2.75
2023-01-17T14:52:00.690Z,2.20
2023-01-17T14:53:27.873Z,2.72
2023-01-17T14:54:29.604Z,1.90
2023-01-17T14:55:32.181Z,2.42
2023-01-17T14:56:34.950Z,2.08
2023-01-17T14:57:36.647Z,2.20
2023-01-17T14:58:41.150Z,3.20
2023-01-17T14:59:42.702Z,2.63
2023-01-17T15:00:46.501Z,3.58
2023-01-17T15:02:06.330Z,3.10
2023-01-17T15:03:12.230Z,2.53
2023-01-17T15:04:26.616Z,2.90
2023-01-17T15:05:29.849Z,2.80
2023-01-17T15:06:39.795Z,3.08
2023-01-17T15:07:45.809Z,3.03
2023-01-17T15:08:53.841Z,2.67
2023-01-17T15:09:56.340Z,2.88
2023-01-17T15:11:02.981Z,3.70
2023-01-17T15:12:15.536Z,3.80
2023-01-17T15:13:43.449Z,3.20
2023-01-17T15:14:48.015Z,2.40
2023-01-17T15:15:49.586Z,3.97
2023-01-17T15:16:52.306Z,3.03
2023-01-17T15:18:08.224Z,2.35
2023-01-17T15:19:12.218Z,2.97
2023-01-17T15:20:16.597Z,2.80
2023-01-17T15:21:30.766Z,2.58
2023-01-17T15:22:33.269Z,3.05
2023-01-17T15:23:39.121Z,3.08
2023-01-17T15:24:45.124Z,3.92
2023-01-17T15:25:47.623Z,2.72
2023-01-17T15:26:50.652Z,3.17
2023-01-17T15:27:55.183Z,2.90
2023-01-17T15:29:05.160Z,2.30
2023-01-17T15:30:12.496Z,2.95
2023-01-17T15:31:17.886Z,2.60
2023-01-17T15:32:22.293Z,2.50
2023-01-17T15:33:24.894Z,2.80
2023-01-17T15:34:29.591Z,2.03
2023-01-17T15:35:31.678Z,3.05
2023-01-17T15:36:34.890Z,2.60
2023-01-17T15:37:40.455Z,2.75
2023-01-17T15:38:50.375Z,2.70
2023-01-17T15:40:06.203Z,2.88
2023-01-17T15:41:23.488Z,2.80
2023-01-17T15:42:28.407Z,2.65
2023-01-17T15:43:35.702Z,2.60
2023-01-17T15:44:48.401Z,3.63
2023-01-17T15:46:01.646Z,2.53
2023-01-17T15:47:05.119Z,2.75
2023-01-17T15:48:35.416Z,2.35
2023-01-17T15:49:37.915Z,3.35
2023-01-17T15:50:39.714Z,3.20
2023-01-17T15:51:48.531Z,2.50
2023-01-17T15:52:53.021Z,2.70
2023-01-17T15:53:54.635Z,2.60
2023-01-17T15:55:01.125Z,3.28
2023-01-17T15:56:20.579Z,2.85
2023-01-17T15:57:28.789Z,2.80
2023-01-17T15:58:30.804Z,2.55
2023-01-17T15:59:45.656Z,3.30
2023-01-17T16:00:48.407Z,2.80
2023-01-17T16:01:55.582Z,3.10
2023-01-17T16:02:59.268Z,3.30
2023-01-17T16:04:29.699Z,2.67
2023-01-17T16:05:43.307Z,2.67
2023-01-17T16:06:54.905Z,3.45
2023-01-17T16:08:26.010Z,3.13
2023-01-17T16:09:28.625Z,2.88
2023-01-17T16:10:32.114Z,2.50
2023-01-17T16:11:34.696Z,2.60
2023-01-17T16:12:41.306Z,2.58
2023-01-17T16:13:47.098Z,2.85
2023-01-17T16:15:06.275Z,2.92
2023-01-17T16:16:21.274Z,2.70
2023-01-17T16:17:24.498Z,3.25
2023-01-17T16:18:27.459Z,2.50
2023-01-17T16:19:30.454Z,2.97
2023-01-17T16:20:36.687Z,3.10
2023-01-17T16:21:40.472Z,2.72
2023-01-17T16:22:44.956Z,3.40
2023-01-17T16:23:47.861Z,3.50
2023-01-17T16:24:50.430Z,3.63
2023-01-17T16:25:53.859Z,2.88
2023-01-17T16:26:56.422Z,3.30
2023-01-17T16:27:59.128Z,3.72
2023-01-17T16:29:01.681Z,3.50
2023-01-17T16:30:04.726Z,3.35
2023-01-17T16:31:06.547Z,3.40
2023-01-17T16:32:09.454Z,3.63
2023-01-17T16:33:12.942Z,3.20
2023-01-17T16:34:15.497Z,3.20
2023-01-17T16:35:28.276Z,2.97
2023-01-17T16:36:30.762Z,3.70
2023-01-17T16:37:32.357Z,3.40
2023-01-17T16:38:34.907Z,3.28
2023-01-17T16:39:37.658Z,5.20
2023-01-17T16:40:40.690Z,3.45
2023-01-17T16:41:43.278Z,4.00
2023-01-17T16:42:45.126Z,4.60
2023-01-17T16:43:56.923Z,3.85
2023-01-17T16:45:05.670Z,4.40
2023-01-17T16:46:21.553Z,3.63
2023-01-17T16:47:26.403Z,3.90
2023-01-17T16:48:30.299Z,3.70
2023-01-17T16:49:42.800Z,4.80
2023-01-17T16:50:55.401Z,3.72
2023-01-17T16:51:56.945Z,4.03
2023-01-17T16:52:59.472Z,3.75
2023-01-17T16:54:02.561Z,3.38
2023-01-17T16:55:05.963Z,2.63
2023-01-17T16:56:11.199Z,3.50
2023-01-17T16:57:14.183Z,2.92
2023-01-17T16:58:25.987Z,3.45
2023-01-17T16:59:39.524Z,4.00
2023-01-17T17:00:48.926Z,3.35
2023-01-17T17:01:52.958Z,4.25
2023-01-17T17:03:05.503Z,3.40
2023-01-17T17:04:10.481Z,3.42
2023-01-17T17:05:12.081Z,3.35
2023-01-17T17:06:15.402Z,3.50
2023-01-17T17:07:18.333Z,3.38
2023-01-17T17:08:20.636Z,3.97
2023-01-17T17:09:24.141Z,4.35
2023-01-17T17:10:27.679Z,3.30
2023-01-17T17:11:30.363Z,3.47
2023-01-17T17:12:34.265Z,3.45
2023-01-17T17:13:36.837Z,3.55
2023-01-17T17:14:39.422Z,3.03
2023-01-17T17:15:42.833Z,3.65
2023-01-17T17:16:45.417Z,3.90
2023-01-17T17:17:47.992Z,4.32
2023-01-17T17:18:56.421Z,3.63
2023-01-17T17:20:00.242Z,4.05
2023-01-17T17:21:02.968Z,4.35
2023-01-17T17:22:15.448Z,4.43
2023-01-17T17:23:18.279Z,4.18
2023-01-17T17:24:20.800Z,4.22
2023-01-17T17:25:22.309Z,4.00
2023-01-17T17:26:26.614Z,4.47
2023-01-17T17:27:39.650Z,4.93
2023-01-17T17:28:42.271Z,4.60
2023-01-17T17:29:43.795Z,6.15
2023-01-17T17:30:46.318Z,4.35
2023-01-17T17:31:48.862Z,4.95
2023-01-17T17:32:50.381Z,5.50
2023-01-17T17:33:52.942Z,6.28
2023-01-17T17:34:55.450Z,6.55
2023-01-17T17:36:04.172Z,5.93
2023-01-17T17:37:07.683Z,5.45
2023-01-17T17:38:09.208Z,6.15
2023-01-17T17:39:14.643Z,7.25
2023-01-17T17:40:17.589Z,5.28
2023-01-17T17:41:20.910Z,5.22
2023-01-17T17:42:23.447Z,5.32
2023-01-17T17:43:26.646Z,6.85
2023-01-17T17:44:29.273Z,6.10
2023-01-17T17:45:31.753Z,7.65
2023-01-17T17:46:34.808Z,7.72
2023-01-17T17:47:37.385Z,7.38
2023-01-17T17:48:50.402Z,6.93
2023-01-17T17:49:53.296Z,6.55
2023-01-17T17:50:59.685Z,6.03
2023-01-17T17:52:07.827Z,7.28
2023-01-17T17:53:09.366Z,7.47
2023-01-17T17:54:13.935Z,6.32
2023-01-17T17:55:18.950Z,7.30
2023-01-17T17:56:22.806Z,6.95
2023-01-17T17:57:38.618Z,7.00
2023-01-17T17:58:40.252Z,8.10
2023-01-17T17:59:43.024Z,7.72
2023-01-17T18:00:44.562Z,7.35
2023-01-17T18:01:55.063Z,7.82
2023-01-17T18:02:56.644Z,7.35
2023-01-17T18:04:03.120Z,7.97
2023-01-17T18:05:06.529Z,7.72
2023-01-17T18:06:10.990Z,6.57
2023-01-17T18:07:14.826Z,6.80
2023-01-17T18:08:16.363Z,7.18
2023-01-17T18:09:18.935Z,6.60
2023-01-17T18:10:20.454Z,6.45
2023-01-17T18:11:25.952Z,6.45
2023-01-17T18:12:27.798Z,5.57
2023-01-17T18:13:31.250Z,6.40
2023-01-17T18:14:33.010Z,5.65
2023-01-17T18:15:35.555Z,6.25
2023-01-17T18:16:41.547Z,6.20
2023-01-17T18:17:44.077Z,5.25
2023-01-17T18:18:48.361Z,5.00
2023-01-17T18:19:50.839Z,5.47
2023-01-17T18:20:53.742Z,5.60
2023-01-17T18:21:56.408Z,6.18
2023-01-17T18:22:59.280Z,5.28
2023-01-17T18:24:03.619Z,5.60
2023-01-17T18:25:13.290Z,5.20
2023-01-17T18:26:16.721Z,5.75
2023-01-17T18:27:19.760Z,4.90
2023-01-17T18:28:21.275Z,5.45
2023-01-17T18:29:25.340Z,4.55
2023-01-17T18:30:27.827Z,5.22
2023-01-17T18:31:32.743Z,5.00
2023-01-17T18:32:44.529Z,5.57
2023-01-17T18:33:47.073Z,5.25
2023-01-17T18:34:59.576Z,5.07
2023-01-17T18:36:05.138Z,5.03
2023-01-17T18:37:17.723Z,6.00
2023-01-17T18:38:37.745Z,4.72
2023-01-17T18:39:50.251Z,5.80
2023-01-17T18:41:02.353Z,5.32
2023-01-17T18:42:05.173Z,5.00
2023-01-17T18:43:06.694Z,5.07
2023-01-17T18:44:12.055Z,5.57
2023-01-17T18:45:22.083Z,5.25
2023-01-17T18:46:26.655Z,4.93
2023-01-17T18:47:30.136Z,4.90
2023-01-17T18:48:35.459Z,5.15
2023-01-17T18:49:38.477Z,5.35
2023-01-17T18:50:39.988Z,5.20
2023-01-17T18:51:46.362Z,4.57
2023-01-17T18:52:48.872Z,4.50
2023-01-17T18:53:53.911Z,4.80
2023-01-17T18:54:56.388Z,4.97
2023-01-17T18:56:09.958Z,5.70
2023-01-17T18:57:13.009Z,5.43
2023-01-17T18:58:15.179Z,5.30
2023-01-17T18:59:19.533Z,5.97
2023-01-17T19:00:31.135Z,6.28
2023-01-17T19:01:44.443Z,5.30
2023-01-17T19:02:56.033Z,5.90
2023-01-17T19:04:08.812Z,6.10
2023-01-17T19:05:11.820Z,6.03
2023-01-17T19:06:18.076Z,6.90
2023-01-17T19:07:28.959Z,5.10
2023-01-17T19:08:35.685Z,5.75
2023-01-17T19:09:49.533Z,6.80
2023-01-17T19:10:54.403Z,6.72
2023-01-17T19:11:58.155Z,6.57
2023-01-17T19:13:10.486Z,6.82
2023-01-17T19:14:23.008Z,6.40
2023-01-17T19:15:36.018Z,5.93
2023-01-17T19:16:41.208Z,6.00
2023-01-17T19:17:43.786Z,6.55
2023-01-17T19:18:46.195Z,5.95
2023-01-17T19:19:49.269Z,6.40
2023-01-17T19:20:50.814Z,6.53
2023-01-17T19:21:53.727Z,7.30
2023-01-17T19:23:05.390Z,6.53
2023-01-17T19:24:08.777Z,6.60
2023-01-17T19:25:12.599Z,6.97
2023-01-17T19:26:16.581Z,7.63
2023-01-17T19:27:29.110Z,8.13
2023-01-17T19:28:44.194Z,7.20
2023-01-17T19:29:46.670Z,7.18
2023-01-17T19:30:49.559Z,7.70
2023-01-17T19:31:52.634Z,6.47
2023-01-17T19:32:55.886Z,6.93
2023-01-17T19:34:00.977Z,7.55
2023-01-17T19:35:02.564Z,7.18
2023-01-17T19:36:08.763Z,6.35
2023-01-17T19:37:21.245Z,8.05
2023-01-17T19:38:22.773Z,7.25
2023-01-17T19:39:28.149Z,6.72
2023-01-17T19:40:31.378Z,6.63
2023-01-17T19:41:41.538Z,6.88
2023-01-17T19:42:54.033Z,7.57
2023-01-17T19:44:08.738Z,6.75
2023-01-17T19:45:13.226Z,7.07
2023-01-17T19:46:18.812Z,7.32
2023-01-17T19:47:21.532Z,8.23
2023-01-17T19:48:23.046Z,7.85
2023-01-17T19:49:25.522Z,7.85
2023-01-17T19:50:27.270Z,8.07
2023-01-17T19:51:30.074Z,8.60
2023-01-17T19:52:36.266Z,8.80
2023-01-17T19:53:40.523Z,7.68
2023-01-17T19:54:43.031Z,9.13
2023-01-17T19:55:56.861Z,8.55
2023-01-17T19:57:09.355Z,9.70
2023-01-17T19:58:12.521Z,8.45
2023-01-17T19:59:16.145Z,9.40
2023-01-17T20:00:20.398Z,9.38
2023-01-17T20:01:30.000Z,9.90
2023-01-17T20:02:34.565Z,10.10
2023-01-17T20:03:38.323Z,9.80
2023-01-17T20:04:40.928Z,9.55
2023-01-17T20:05:57.493Z,9.10
2023-01-17T20:06:59.971Z,9.90
2023-01-17T20:08:02.992Z,8.90
2023-01-17T20:09:06.520Z,9.80
2023-01-17T20:10:20.871Z,9.80
2023-01-17T20:11:34.795Z,10.10
2023-01-17T20:12:47.639Z,10.60
2023-01-17T20:13:53.800Z,10.15
2023-01-17T20:14:56.253Z,11.13
2023-01-17T20:16:02.531Z,9.75
2023-01-17T20:17:05.051Z,10.40
2023-01-17T20:18:06.607Z,10.13
2023-01-17T20:19:09.097Z,10.40
2023-01-17T20:20:22.661Z,11.48
2023-01-17T20:21:26.403Z,9.40
2023-01-17T20:22:28.937Z,11.25
2023-01-17T20:23:35.287Z,11.82
2023-01-17T20:24:47.908Z,12.07
2023-01-17T20:26:01.463Z,9.85
2023-01-17T20:27:04.800Z,10.85
2023-01-17T20:28:07.333Z,11.38
2023-01-17T20:29:13.383Z,11.23
2023-01-17T20:30:20.511Z,10.73
2023-01-17T20:31:26.662Z,11.07
2023-01-17T20:32:29.249Z,10.90
2023-01-17T20:33:42.085Z,10.52
2023-01-17T20:34:45.545Z,10.57
2023-01-17T20:35:47.137Z,11.77
2023-01-17T20:36:49.669Z,11.98
2023-01-17T20:38:02.163Z,11.32
2023-01-17T20:39:15.736Z,12.25
2023-01-17T20:40:20.133Z,12.15
2023-01-17T20:41:24.077Z,11.38
2023-01-17T20:42:26.943Z,10.63
2023-01-17T20:43:32.166Z,11.27
2023-01-17T20:44:34.704Z,11.40
2023-01-17T20:45:36.281Z,11.63
2023-01-17T20:46:41.137Z,11.10
2023-01-17T20:47:54.904Z,12.38
2023-01-17T20:49:00.585Z,12.70
2023-01-17T20:50:05.965Z,10.95
2023-01-17T20:51:10.452Z,12.68
2023-01-17T20:52:22.970Z,13.07
2023-01-17T20:53:35.772Z,11.60
2023-01-17T20:54:38.244Z,20.92
2023-01-17T20:55:39.856Z,12.52
2023-01-17T20:56:43.291Z,11.98
2023-01-17T20:57:47.125Z,11.38
2023-01-17T20:58:51.767Z,11.52
2023-01-17T20:59:55.505Z,11.60
2023-01-17T21:00:58.867Z,11.73
2023-01-17T21:02:02.891Z,11.15
2023-01-17T21:03:04.614Z,11.32
2023-01-17T21:04:09.877Z,10.27
2023-01-17T21:05:12.732Z,12.20
2023-01-17T21:06:25.940Z,10.20
2023-01-17T21:07:37.255Z,10.85
2023-01-17T21:08:41.519Z,12.50
2023-01-17T21:09:44.056Z,12.35
2023-01-17T21:10:47.435Z,10.98
2023-01-17T21:11:50.382Z,10.70
2023-01-17T21:12:54.404Z,11.45
2023-01-17T21:13:57.286Z,11.75
2023-01-17T21:15:11.238Z,11.27
2023-01-17T21:16:16.295Z,11.82
2023-01-17T21:17:19.138Z,11.73
2023-01-17T21:18:31.831Z,11.65
2023-01-17T21:19:44.478Z,10.45
2023-01-17T21:20:54.688Z,12.40
2023-01-17T21:21:57.201Z,10.80
2023-01-17T21:22:58.732Z,11.05
2023-01-17T21:24:01.589Z,11.35
2023-01-17T21:25:04.116Z,11.32
2023-01-17T21:26:06.798Z,10.95
2023-01-17T21:27:09.320Z,11.73
2023-01-17T21:28:23.045Z,11.57
2023-01-17T21:29:28.928Z,9.90
2023-01-17T21:30:31.241Z,11.95
2023-01-17T21:31:45.014Z,11.43
2023-01-17T21:32:57.504Z,11.70
2023-01-17T21:34:02.274Z,11.25
2023-01-17T21:35:05.157Z,11.50
2023-01-17T21:36:08.392Z,11.02
2023-01-17T21:37:11.270Z,10.57
2023-01-17T21:38:14.276Z,11.07
2023-01-17T21:39:29.161Z,11.75
2023-01-17T21:40:30.733Z,10.98
2023-01-17T21:41:35.437Z,11.30
2023-01-17T21:42:39.288Z,12.35
2023-01-17T21:43:55.628Z,11.48
2023-01-17T21:44:58.268Z,11.65
2023-01-17T21:46:02.881Z,11.60
2023-01-17T21:47:05.494Z,10.18
2023-01-17T21:48:12.242Z,9.98
2023-01-17T21:49:15.432Z,11.10
2023-01-17T21:50:32.078Z,11.25
2023-01-17T21:51:58.612Z,11.45
2023-01-17T21:53:11.115Z,11.60
2023-01-17T21:54:12.812Z,10.93
2023-01-17T21:55:32.876Z,10.38
2023-01-17T21:57:03.266Z,10.48
2023-01-17T21:58:34.103Z,10.13
2023-01-17T21:59:41.536Z,10.48
2023-01-17T22:00:46.525Z,11.57
2023-01-17T22:01:53.440Z,12.13
2023-01-17T22:02:59.089Z,11.93
2023-01-17T22:04:04.630Z,11.38
2023-01-17T22:05:18.427Z,11.23
2023-01-17T22:06:21.222Z,11.65
2023-01-17T22:07:25.107Z,11.15
2023-01-17T22:08:31.444Z,11.65
2023-01-17T22:09:44.002Z,11.65
2023-01-17T22:10:45.576Z,12.10
2023-01-17T22:11:48.141Z,11.25
2023-01-17T22:12:51.717Z,10.88
2023-01-17T22:14:05.357Z,12.43
2023-01-17T22:15:10.361Z,11.57
2023-01-17T22:16:14.884Z,11.82
2023-01-17T22:17:16.502Z,12.15
2023-01-17T22:18:19.566Z,11.05
2023-01-17T22:19:22.411Z,10.57
2023-01-17T22:20:24.939Z,11.88
2023-01-17T22:21:29.282Z,10.30
2023-01-17T22:22:32.218Z,11.35
2023-01-17T22:23:39.939Z,11.75
2023-01-17T22:24:41.471Z,11.65
2023-01-17T22:25:43.935Z,11.73
2023-01-17T22:26:45.459Z,11.00
2023-01-17T22:27:47.981Z,11.45
2023-01-17T22:28:50.583Z,10.90
2023-01-17T22:29:53.065Z,10.90
2023-01-17T22:30:59.162Z,10.68
2023-01-17T22:32:01.008Z,11.25
2023-01-17T22:33:06.194Z,12.73
2023-01-17T22:34:13.422Z,11.45
2023-01-17T22:35:16.189Z,12.20
2023-01-17T22:36:17.738Z,11.82
2023-01-17T22:37:20.540Z,11.45
2023-01-17T22:38:33.680Z,11.63
2023-01-17T22:39:39.179Z,11.48
2023-01-17T22:40:51.653Z,11.70
2023-01-17T22:41:54.251Z,11.85
2023-01-17T22:42:57.131Z,12.50
2023-01-17T22:44:02.105Z,11.32
2023-01-17T22:45:13.171Z,12.45
2023-01-17T22:46:19.712Z,12.02
2023-01-17T22:47:21.283Z,12.77
2023-01-17T22:48:23.786Z,12.43
2023-01-17T22:49:25.314Z,12.60
2023-01-17T22:50:27.814Z,12.05
2023-01-17T22:51:29.533Z,11.70
2023-01-17T22:52:32.679Z,13.45
2023-01-17T22:53:34.775Z,12.93
2023-01-17T22:54:37.257Z,11.80
2023-01-17T22:55:39.206Z,11.90
2023-01-17T22:56:41.752Z,12.45
2023-01-17T22:57:44.546Z,10.82
2023-01-17T22:58:48.690Z,12.02
2023-01-17T22:59:51.967Z,11.48
2023-01-17T23:00:53.489Z,12.45
2023-01-17T23:02:00.364Z,11.45
2023-01-17T23:03:12.041Z,14.27
2023-01-17T23:04:17.054Z,12.75
2023-01-17T23:05:20.210Z,12.57
2023-01-17T23:06:34.639Z,13.20
2023-01-17T23:07:43.353Z,14.27
2023-01-17T23:08:47.420Z,13.40
2023-01-17T23:09:48.945Z,13.68
2023-01-17T23:11:09.193Z,12.07
2023-01-17T23:12:11.695Z,13.05
2023-01-17T23:13:13.226Z,11.80
2023-01-17T23:14:28.906Z,12.32
2023-01-17T23:15:49.236Z,11.70